Time;durP1;ratioP1;P1;durP2;ratioP2;P2;SDS_P1;SDS_P2;PMS_P1;PMS_P2;Temp;Humidity;BMP_temperature;BMP_pressure;BME280_temperature;BME280_humidity;BME280_pressure;Samples;Min_cycle;Max_cycle;Signal;HPM_P1;HPM_P2
2023/11/22 00:00:23;;;;;;;20.00;14.40;;;;;;;4.00;100.00;98244.27;107484;1277;73614;-83
2023/11/22 00:02:50;;;;;;;23.90;14.70;;;;;;;3.97;100.00;98249.18;107493;1276;74449;-82
2023/11/22 00:05:17;;;;;;;16.60;14.60;;;;;;;3.93;100.00;98251.48;107464;1275;72582;-82
2023/11/22 00:07:44;;;;;;;17.30;13.40;;;;;;;3.91;100.00;98257.98;107238;1276;60241;-83
2023/11/22 00:10:12;;;;;;;17.80;14.20;;;;;;;3.88;100.00;98262.89;107259;1276;61636;-83
2023/11/22 00:12:39;;;;;;;16.90;13.40;;;;;;;3.86;100.00;98266.19;107496;1277;74235;-82
2023/11/22 00:15:10;;;;;;;22.40;13.60;;;;;;;3.84;100.00;98268.38;107487;1276;74313;-83
2023/11/22 00:17:37;;;;;;;17.90;12.60;;;;;;;3.82;100.00;98272.70;107485;1277;71690;-83
2023/11/22 00:20:08;;;;;;;15.00;13.30;;;;;;;3.79;100.00;98279.20;107505;1277;61538;-82
2023/11/22 00:22:35;;;;;;;15.30;13.70;;;;;;;3.77;100.00;98277.89;107511;1277;59237;-83
2023/11/22 00:25:03;;;;;;;13.30;12.00;;;;;;;3.77;100.00;98277.88;107116;1278;75694;-82
2023/11/22 00:27:33;;;;;;;13.60;11.00;;;;;;;3.77;100.00;98280.55;107509;1276;74101;-83
2023/11/22 00:30:01;;;;;;;12.80;10.30;;;;;;;3.77;100.00;98280.59;107321;1277;71551;-81
2023/11/22 00:32:29;;;;;;;11.70;10.50;;;;;;;3.75;100.00;98278.86;107333;1276;60031;-82
2023/11/22 00:34:57;;;;;;;11.50;10.40;;;;;;;3.74;100.00;98284.03;107254;1277;60687;-83
2023/11/22 00:37:24;;;;;;;11.50;10.30;;;;;;;3.74;100.00;98291.14;107395;1276;73368;-83
2023/11/22 00:39:51;;;;;;;10.30;9.30;;;;;;;3.73;100.00;98289.59;107305;1277;74766;-84
2023/11/22 00:42:22;;;;;;;9.70;8.70;;;;;;;3.73;100.00;98292.79;107296;1277;72547;-82
2023/11/22 00:44:49;;;;;;;10.20;8.80;;;;;;;3.72;100.00;98293.69;107314;1277;60980;-84
2023/11/22 00:47:16;;;;;;;10.10;9.00;;;;;;;3.71;100.00;98293.23;107316;1277;61294;-85
2023/11/22 00:49:43;;;;;;;11.30;8.80;;;;;;;3.70;100.00;98293.44;107221;1276;74535;-84
2023/11/22 00:52:10;;;;;;;10.10;9.10;;;;;;;3.69;100.00;98298.95;107272;1276;74360;-84
2023/11/22 00:54:37;;;;;;;10.70;9.60;;;;;;;3.69;100.00;98297.53;107280;1277;72797;-83
2023/11/22 00:57:06;;;;;;;10.20;9.00;;;;;;;3.69;100.00;98295.95;107227;1276;59972;-81
2023/11/22 00:59:33;;;;;;;11.00;9.90;;;;;;;3.69;100.00;98298.45;107188;1277;59512;-81
2023/11/22 01:02:04;;;;;;;11.00;9.40;;;;;;;3.68;100.00;98294.44;107267;1276;74627;-82
2023/11/22 01:04:35;;;;;;;10.90;9.80;;;;;;;3.68;100.00;98296.72;107314;1282;75366;-83
2023/11/22 01:07:06;;;;;;;12.00;10.70;;;;;;;3.67;100.00;98296.75;107549;1276;73431;-82
2023/11/22 01:09:33;;;;;;;13.50;11.10;;;;;;;3.65;100.00;98300.39;107564;1277;59951;-83
2023/11/22 01:12:00;;;;;;;24.20;12.80;;;;;;;3.63;100.00;98305.59;107532;1277;59220;-82
2023/11/22 01:14:28;;;;;;;17.20;11.70;;;;;;;3.61;100.00;98304.77;107296;1276;73151;-82
2023/11/22 01:16:55;;;;;;;16.70;12.30;;;;;;;3.59;100.00;98304.14;107129;1278;75665;-82
2023/11/22 01:19:22;;;;;;;24.40;13.10;;;;;;;3.57;100.00;98303.92;107583;1277;72286;-82
2023/11/22 01:21:49;;;;;;;19.50;12.70;;;;;;;3.54;100.00;98300.48;107303;1277;59902;-81
2023/11/22 01:24:16;;;;;;;17.40;12.90;;;;;;;3.51;100.00;98306.80;107238;1277;59194;-81
2023/11/22 01:26:43;;;;;;;18.00;13.40;;;;;;;3.48;100.00;98308.33;107079;1277;74367;-82
2023/11/22 01:29:11;;;;;;;28.90;12.90;;;;;;;3.46;100.00;98310.38;107011;1276;72660;-82
2023/11/22 01:31:39;;;;;;;14.60;11.90;;;;;;;3.44;100.00;98315.23;107220;1276;71253;-82
2023/11/22 01:34:06;;;;;;;20.90;13.20;;;;;;;3.43;100.00;98311.04;107168;1277;60884;-82
2023/11/22 01:36:41;;;;;;;15.80;13.10;;;;;;;3.42;100.00;98317.81;107193;1277;59439;-83
2023/11/22 01:39:12;;;;;;;14.50;11.90;;;;;;;3.40;100.00;98319.66;107167;1279;72689;-83
2023/11/22 01:41:39;;;;;;;18.80;12.30;;;;;;;3.39;100.00;98320.77;107249;1281;74844;-81
2023/11/22 01:44:06;;;;;;;13.40;11.90;;;;;;;3.38;100.00;98325.59;107208;1277;73361;-83
2023/11/22 01:46:33;;;;;;;15.20;11.80;;;;;;;3.37;100.00;98329.88;107209;1280;59880;-83
2023/11/22 01:49:00;;;;;;;14.50;13.00;;;;;;;3.35;100.00;98332.23;107168;1278;59173;-82
2023/11/22 01:51:28;;;;;;;15.20;12.30;;;;;;;3.34;100.00;98340.98;107234;1277;73818;-81
2023/11/22 01:53:57;;;;;;;22.10;13.20;;;;;;;3.31;100.00;98343.38;107230;1277;72177;-84
2023/11/22 01:56:26;;;;;;;13.30;11.50;;;;;;;3.30;100.00;98344.88;107232;1277;70960;-82
2023/11/22 01:58:54;;;;;;;20.00;12.10;;;;;;;3.27;100.00;98350.63;107281;1278;62330;-81
2023/11/22 02:01:22;;;;;;;15.40;12.90;;;;;;;3.24;100.00;98348.98;107377;1276;60222;-83
2023/11/22 02:03:49;;;;;;;17.40;11.40;;;;;;;3.22;100.00;98351.00;107670;1276;73533;-80
2023/11/22 02:06:16;;;;;;;15.40;11.30;;;;;;;3.20;100.00;98355.16;107504;1276;72188;-82
2023/11/22 02:08:43;;;;;;;15.00;11.70;;;;;;;3.18;100.00;98357.55;107346;1277;70421;-83
2023/11/22 02:11:10;;;;;;;14.30;12.70;;;;;;;3.15;100.00;98358.36;107224;1277;60215;-82
2023/11/22 02:13:37;;;;;;;14.50;11.20;;;;;;;3.13;100.00;98361.45;107362;1276;60299;-80
2023/11/22 02:16:05;;;;;;;13.70;11.00;;;;;;;3.11;100.00;98364.70;107319;1276;74246;-82
2023/11/22 02:18:31;;;;;;;12.50;10.80;;;;;;;3.08;100.00;98361.81;107081;1276;74317;-82
2023/11/22 02:20:59;;;;;;;12.00;9.80;;;;;;;3.08;100.00;98364.83;107248;1276;73866;-82
2023/11/22 02:23:26;;;;;;;10.90;9.70;;;;;;;3.07;100.00;98361.85;107292;1277;60549;-82
2023/11/22 02:25:53;;;;;;;10.70;9.60;;;;;;;3.06;100.00;98363.13;107347;1277;60030;-81
2023/11/22 02:28:21;;;;;;;10.30;9.20;;;;;;;3.05;100.00;98368.50;107311;1276;75748;-82
2023/11/22 02:30:48;;;;;;;10.80;9.40;;;;;;;3.02;100.00;98367.18;107454;1276;74532;-81
2023/11/22 02:33:15;;;;;;;10.00;9.00;;;;;;;3.01;100.00;98371.48;107296;1276;72779;-83
2023/11/22 02:35:42;;;;;;;9.80;8.80;;;;;;;2.99;100.00;98373.31;107226;1277;60802;-82
2023/11/22 02:38:09;;;;;;;8.20;7.40;;;;;;;2.98;100.00;98373.36;107248;1276;60359;-81
2023/11/22 02:40:36;;;;;;;8.90;7.80;;;;;;;2.97;100.00;98376.79;107301;1276;74869;-81
2023/11/22 02:43:07;;;;;;;10.10;8.60;;;;;;;2.95;100.00;98384.44;107231;1277;74171;-81
2023/11/22 02:45:35;;;;;;;8.50;7.50;;;;;;;2.94;100.00;98383.61;107285;1276;72531;-81
2023/11/22 02:48:03;;;;;;;7.60;6.80;;;;;;;2.91;100.00;98387.07;107291;1277;61101;-81
2023/11/22 02:50:34;;;;;;;8.10;7.20;;;;;;;2.88;100.00;98390.38;107299;1276;59151;-81
2023/11/22 02:53:02;;;;;;;7.70;6.90;;;;;;;2.85;100.00;98392.08;107322;1276;73525;-81
2023/11/22 02:55:29;;;;;;;7.10;6.10;;;;;;;2.83;100.00;98391.45;107352;1276;74336;-82
2023/11/22 02:57:56;;;;;;;7.00;6.10;;;;;;;2.81;100.00;98397.54;107312;1276;73907;-83
2023/11/22 03:00:25;;;;;;;6.80;6.10;;;;;;;2.79;100.00;98401.48;107449;1276;61754;-83
2023/11/22 03:02:54;;;;;;;7.00;6.30;;;;;;;2.77;100.00;98403.17;107466;1276;59749;-83
2023/11/22 03:05:22;;;;;;;7.60;6.40;;;;;;;2.74;100.00;98406.97;107088;1276;74495;-83
2023/11/22 03:07:50;;;;;;;6.80;6.00;;;;;;;2.73;100.00;98414.45;107466;1276;74350;-82
2023/11/22 03:10:18;;;;;;;5.80;5.20;;;;;;;2.70;100.00;98412.98;107481;1276;72636;-82
2023/11/22 03:12:45;;;;;;;5.10;4.60;;;;;;;2.66;100.00;98417.02;107474;1275;61114;-82
2023/11/22 03:15:12;;;;;;;6.80;5.40;;;;;;;2.63;100.00;98419.80;107482;1276;59244;-82
2023/11/22 03:17:39;;;;;;;5.30;4.70;;;;;;;2.60;100.00;98422.92;107234;1276;73222;-82
2023/11/22 03:20:10;;;;;;;5.70;5.10;;;;;;;2.57;100.00;98421.77;107233;1276;74456;-82
2023/11/22 03:22:39;;;;;;;4.40;4.00;;;;;;;2.53;100.00;98421.89;107512;1275;71972;-82
2023/11/22 03:25:09;;;;;;;3.70;3.40;;;;;;;2.49;100.00;98421.66;107448;1275;59882;-82
2023/11/22 03:27:37;;;;;;;3.80;3.50;;;;;;;2.46;100.00;98424.63;107530;1275;59997;-82
2023/11/22 03:30:05;;;;;;;3.90;3.40;;;;;;;2.43;100.00;98434.12;107455;1276;73778;-83
2023/11/22 03:32:37;;;;;;;4.10;3.70;;;;;;;2.39;100.00;98429.99;107449;1277;75815;-83
2023/11/22 03:35:08;;;;;;;3.70;3.40;;;;;;;2.36;100.00;98434.52;107496;1276;72101;-82
2023/11/22 03:37:37;;;;;;;3.80;3.10;;;;;;;2.32;100.00;98438.58;107487;1276;60040;-82
2023/11/22 03:40:04;;;;;;;4.30;3.70;;;;;;;2.28;100.00;98450.36;107214;1276;94239;-83
2023/11/22 03:42:32;;;;;;;4.30;3.90;;;;;;;2.24;100.00;98456.87;107553;1276;74356;-82
2023/11/22 03:44:59;;;;;;;3.30;3.00;;;;;;;2.20;100.00;98456.30;107500;1276;73942;-82
2023/11/22 03:47:26;;;;;;;3.50;3.20;;;;;;;2.15;100.00;98459.09;107273;1276;72588;-81
2023/11/22 03:49:54;;;;;;;4.20;3.90;;;;;;;2.11;100.00;98459.08;107497;1276;60363;-83
2023/11/22 03:52:20;;;;;;;4.60;4.20;;;;;;;2.08;100.00;98464.29;107243;1275;59972;-81
2023/11/22 03:54:47;;;;;;;5.50;5.00;;;;;;;2.06;100.00;98468.25;107478;1276;74658;-83
2023/11/22 03:57:14;;;;;;;4.60;4.20;;;;;;;2.04;100.00;98471.86;107468;1276;74420;-83
2023/11/22 03:59:42;;;;;;;6.00;5.40;;;;;;;2.03;100.00;98481.96;107465;1275;72529;-82
2023/11/22 04:02:10;;;;;;;6.60;5.50;;;;;;;2.01;100.00;98487.49;107533;1275;59673;-81
2023/11/22 04:04:39;;;;;;;6.80;6.20;;;;;;;2.00;100.00;98487.87;107634;1275;60121;-82
2023/11/22 04:07:07;;;;;;;7.80;7.00;;;;;;;2.00;100.00;98488.59;107457;1276;74328;-82
2023/11/22 04:09:34;;;;;;;8.30;7.60;;;;;;;1.99;100.00;98497.27;107460;1275;74254;-82
2023/11/22 04:12:01;;;;;;;10.20;9.20;;;;;;;1.98;100.00;98504.02;107245;1276;72594;-83
2023/11/22 04:14:29;;;;;;;9.00;8.10;;;;;;;1.96;100.00;98510.60;107482;1275;59864;-83
2023/11/22 04:16:56;;;;;;;8.90;8.10;;;;;;;1.96;100.00;98520.52;107330;1276;59896;-83
2023/11/22 04:19:24;;;;;;;6.90;6.20;;;;;;;1.94;100.00;98529.92;107454;1275;73442;-82
2023/11/22 04:21:51;;;;;;;6.60;6.00;;;;;;;1.91;100.00;98535.13;107459;1276;74003;-83
2023/11/22 04:24:18;;;;;;;5.80;5.20;;;;;;;1.89;100.00;98537.70;107431;1276;71530;-82
2023/11/22 04:26:45;;;;;;;6.40;5.70;;;;;;;1.85;100.00;98535.53;107448;1276;60223;-82
2023/11/22 04:29:16;;;;;;;6.60;6.00;;;;;;;1.81;100.00;98537.05;107594;1275;59246;-83
2023/11/22 04:31:43;;;;;;;7.00;6.40;;;;;;;1.78;100.00;98539.08;107745;1276;73633;-82
2023/11/22 04:34:10;;;;;;;6.60;6.00;;;;;;;1.76;100.00;98544.98;107508;1276;73570;-83
2023/11/22 04:36:38;;;;;;;7.10;6.50;;;;;;;1.74;100.00;98556.00;107452;1275;71404;-82
2023/11/22 04:39:07;;;;;;;6.70;6.10;;;;;;;1.71;100.00;98564.19;107467;1276;61905;-83
2023/11/22 04:41:34;;;;;;;7.00;6.40;;;;;;;1.69;100.00;98573.09;107439;1276;60109;-83
2023/11/22 04:44:02;;;;;;;7.40;6.80;;;;;;;1.67;100.00;98581.45;106634;1276;73603;-83
2023/11/22 04:46:29;;;;;;;7.10;6.40;;;;;;;1.64;100.00;98584.54;107523;1276;74398;-83
2023/11/22 04:48:57;;;;;;;6.40;5.90;;;;;;;1.61;100.00;98587.61;107260;1275;72702;-83
2023/11/22 04:51:24;;;;;;;6.70;6.10;;;;;;;1.59;100.00;98596.17;107424;1276;60185;-83
2023/11/22 04:53:51;;;;;;;7.30;6.00;;;;;;;1.56;100.00;98597.31;107462;1276;60159;-82
2023/11/22 04:56:18;;;;;;;8.10;7.30;;;;;;;1.54;100.00;98604.27;107461;1277;73580;-82
2023/11/22 04:58:45;;;;;;;6.50;5.90;;;;;;;1.52;100.00;98607.65;107243;1276;75311;-82
2023/11/22 05:01:12;;;;;;;6.70;6.10;;;;;;;1.52;100.00;98612.81;107444;1276;70591;-82
2023/11/22 05:03:42;;;;;;;7.30;6.60;;;;;;;1.50;100.00;98617.77;107229;1276;61545;-82
2023/11/22 05:06:09;;;;;;;6.90;6.30;;;;;;;1.49;100.00;98623.27;107469;1276;59918;-82
2023/11/22 05:08:36;;;;;;;7.30;6.70;;;;;;;1.48;100.00;98630.73;107441;1276;74631;-82
2023/11/22 05:11:04;;;;;;;6.60;5.90;;;;;;;1.45;100.00;98636.81;107258;1275;74464;-82
2023/11/22 05:13:31;;;;;;;6.70;6.10;;;;;;;1.42;100.00;98644.66;107438;1276;72603;-83
2023/11/22 05:15:58;;;;;;;6.90;6.30;;;;;;;1.40;100.00;98647.20;107443;1276;61174;-83
2023/11/22 05:18:25;;;;;;;7.00;6.20;;;;;;;1.38;100.00;98646.36;107453;1275;59072;-83
2023/11/22 05:20:52;;;;;;;8.50;5.80;;;;;;;1.37;100.00;98655.20;107435;1276;73065;-82
2023/11/22 05:23:19;;;;;;;6.80;6.20;;;;;;;1.35;100.00;98659.50;107259;1276;74319;-82
2023/11/22 05:25:46;;;;;;;6.00;5.50;;;;;;;1.35;100.00;98664.62;107462;1276;72686;-83
2023/11/22 05:28:13;;;;;;;6.90;6.30;;;;;;;1.34;100.00;98667.48;107452;1276;62001;-83
2023/11/22 05:30:40;;;;;;;6.70;6.10;;;;;;;1.33;100.00;98676.84;107464;1276;60306;-83
2023/11/22 05:33:07;;;;;;;6.90;6.30;;;;;;;1.32;100.00;98682.54;107479;1276;74761;-83
2023/11/22 05:35:35;;;;;;;7.30;6.70;;;;;;;1.29;100.00;98683.12;107439;1276;76224;-83
2023/11/22 05:38:02;;;;;;;7.40;6.80;;;;;;;1.26;100.00;98686.91;107229;1275;72842;-83
2023/11/22 05:40:29;;;;;;;6.70;6.10;;;;;;;1.22;100.00;98693.20;107253;1276;60001;-83
2023/11/22 05:42:56;;;;;;;7.10;6.40;;;;;;;1.19;100.00;98694.70;107397;1276;59284;-83
2023/11/22 05:45:23;;;;;;;7.60;6.80;;;;;;;1.16;100.00;98697.95;107442;1276;74107;-83
2023/11/22 05:47:51;;;;;;;7.50;6.80;;;;;;;1.14;100.00;98703.64;107354;1275;73310;-83
2023/11/22 05:50:18;;;;;;;7.40;6.70;;;;;;;1.12;100.00;98707.75;107455;1274;71417;-83
2023/11/22 05:52:45;;;;;;;6.20;5.60;;;;;;;1.09;100.00;98713.83;107471;1276;60558;-82
2023/11/22 05:55:14;;;;;;;7.60;6.90;;;;;;;1.06;100.00;98723.77;107576;1276;59788;-83
2023/11/22 05:57:41;;;;;;;7.90;7.20;;;;;;;1.03;100.00;98730.36;107380;1276;73622;-83
2023/11/22 06:00:09;;;;;;;8.30;7.30;;;;;;;1.00;100.00;98733.25;107557;1275;73386;-82
2023/11/22 06:02:39;;;;;;;8.60;7.80;;;;;;;0.97;100.00;98737.05;107623;1276;71407;-83
2023/11/22 06:05:06;;;;;;;8.80;8.00;;;;;;;0.93;100.00;98745.45;107277;1276;60010;-83
2023/11/22 06:07:34;;;;;;;9.60;8.70;;;;;;;0.89;100.00;98744.48;107476;1276;59298;-82
2023/11/22 06:10:02;;;;;;;15.40;8.60;;;;;;;0.87;100.00;98751.58;107413;1276;73147;-83
2023/11/22 06:12:33;;;;;;;9.40;8.50;;;;;;;0.85;100.00;98757.44;107545;1276;73654;-83
2023/11/22 06:15:00;;;;;;;11.90;8.20;;;;;;;0.85;100.00;98765.73;107385;1275;71419;-83
2023/11/22 06:17:29;;;;;;;10.10;9.10;;;;;;;0.84;100.00;98769.45;107380;1276;59921;-84
2023/11/22 06:19:57;;;;;;;10.20;9.10;;;;;;;0.81;100.00;98772.89;107426;1276;59275;-84
2023/11/22 06:22:24;;;;;;;11.00;9.90;;;;;;;0.78;100.00;98776.83;107471;1276;72298;-83
2023/11/22 06:24:51;;;;;;;11.20;10.20;;;;;;;0.76;100.00;98779.52;107456;1276;74288;-83
2023/11/22 06:27:18;;;;;;;10.80;9.80;;;;;;;0.74;100.00;98786.27;107700;1277;71311;-82
2023/11/22 06:29:45;;;;;;;11.10;10.00;;;;;;;0.71;100.00;98787.39;107669;1275;62230;-85
2023/11/22 06:32:12;;;;;;;11.40;10.20;;;;;;;0.69;100.00;98795.56;107190;1276;59429;-83
2023/11/22 06:34:39;;;;;;;11.60;10.40;;;;;;;0.66;100.00;98792.27;107548;1276;73152;-83
2023/11/22 06:37:08;;;;;;;11.40;10.30;;;;;;;0.64;100.00;98796.38;107345;1276;74323;-84
2023/11/22 06:39:35;;;;;;;11.70;10.60;;;;;;;0.63;100.00;98798.33;107413;1276;72443;-81
2023/11/22 06:42:03;;;;;;;11.90;10.70;;;;;;;0.61;100.00;98801.20;107353;1276;60868;-83
2023/11/22 06:44:30;;;;;;;12.10;10.90;;;;;;;0.60;100.00;98810.22;107090;1276;60109;-84
2023/11/22 06:47:00;;;;;;;10.70;9.30;;;;;;;0.57;100.00;98812.02;107128;1276;74793;-84
2023/11/22 06:49:31;;;;;;;10.20;9.20;;;;;;;0.56;100.00;98820.69;106940;1276;74362;-84
2023/11/22 06:51:58;;;;;;;10.40;9.50;;;;;;;0.55;100.00;98826.16;107127;1277;73562;-85
2023/11/22 06:54:29;;;;;;;11.70;9.40;;;;;;;0.54;100.00;98838.36;107257;1276;61700;-84
2023/11/22 06:56:56;;;;;;;10.80;9.80;;;;;;;0.51;100.00;98841.58;107243;1276;59281;-85
2023/11/22 06:59:23;;;;;;;9.60;8.70;;;;;;;0.48;100.00;98850.80;107254;1276;73878;-85
2023/11/22 07:01:50;;;;;;;9.90;8.90;;;;;;;0.46;100.00;98848.77;107175;1276;73185;-84
2023/11/22 07:04:17;;;;;;;12.70;11.40;;;;;;;0.44;100.00;98853.56;107250;1276;72933;-85
2023/11/22 07:06:45;;;;;;;10.80;9.70;;;;;;;0.42;100.00;98861.34;107082;1276;61558;-84
2023/11/22 07:09:13;;;;;;;9.30;8.40;;;;;;;0.39;100.00;98860.00;107478;1276;59661;-84
2023/11/22 07:11:41;;;;;;;9.80;8.90;;;;;;;0.37;100.00;98871.83;107498;1276;75071;-85
2023/11/22 07:14:08;;;;;;;9.20;8.30;;;;;;;0.37;100.00;98876.25;107425;1275;73151;-86
2023/11/22 07:16:39;;;;;;;12.30;11.10;;;;;;;0.38;100.00;98883.45;107196;1276;72662;-85
2023/11/22 07:19:06;;;;;;;12.30;10.70;;;;;;;0.39;100.00;98892.42;107165;1276;61274;-86
2023/11/22 07:21:37;;;;;;;11.80;10.60;;;;;;;0.41;100.00;98895.90;107071;1276;60952;-85
2023/11/22 07:24:06;;;;;;;10.80;9.80;;;;;;;0.42;100.00;98898.17;107129;1276;74568;-85
2023/11/22 07:26:33;;;;;;;11.10;10.00;;;;;;;0.42;100.00;98893.76;107104;1276;76538;-84
2023/11/22 07:29:01;;;;;;;13.00;11.60;;;;;;;0.42;100.00;98896.05;107137;1276;73351;-85
2023/11/22 07:31:29;;;;;;;11.00;9.90;;;;;;;0.43;100.00;98896.38;107053;1278;61103;-86
2023/11/22 07:33:56;;;;;;;11.00;10.00;;;;;;;0.43;100.00;98900.27;107216;1277;60023;-85
2023/11/22 07:36:24;;;;;;;9.90;8.90;;;;;;;0.44;100.00;98906.41;107291;1276;74604;-86
2023/11/22 07:38:53;;;;;;;12.40;11.20;;;;;;;0.44;100.00;98907.64;107216;1276;74493;-84
2023/11/22 07:41:21;;;;;;;13.80;12.20;;;;;;;0.44;100.00;98907.83;107129;1275;71908;-85
2023/11/22 07:43:49;;;;;;;14.30;12.40;;;;;;;0.43;100.00;98907.14;106937;1278;60966;-86
2023/11/22 07:46:17;;;;;;;13.60;12.30;;;;;;;0.43;100.00;98908.89;107125;1276;61046;-84
2023/11/22 07:48:46;;;;;;;12.60;11.40;;;;;;;0.44;100.00;98911.88;107323;1277;73819;-86
2023/11/22 07:51:18;;;;;;;11.00;9.90;;;;;;;0.44;100.00;98910.45;107215;1276;74542;-85
2023/11/22 07:53:45;;;;;;;12.50;10.50;;;;;;;0.46;100.00;98922.22;107103;1276;72005;-84
2023/11/22 07:56:12;;;;;;;12.80;11.30;;;;;;;0.47;100.00;98919.21;107263;1276;59888;-85
2023/11/22 07:58:41;;;;;;;12.00;10.80;;;;;;;0.49;100.00;98928.66;107272;1276;59472;-86
2023/11/22 08:01:13;;;;;;;12.90;11.50;;;;;;;0.52;100.00;98936.55;106989;1276;75179;-84
2023/11/22 08:03:45;;;;;;;6.90;6.30;;;;;;;0.54;100.00;98939.48;107386;1276;75670;-84
2023/11/22 08:06:16;;;;;;;11.00;9.90;;;;;;;0.56;100.00;98944.75;107072;1276;71208;-84
2023/11/22 08:08:48;;;;;;;10.40;9.40;;;;;;;0.57;100.00;98947.90;107005;1276;60267;-84
2023/11/22 08:11:24;;;;;;;9.20;8.30;;;;;;;0.57;100.00;98948.96;107270;1274;60914;-84
2023/11/22 08:13:54;;;;;;;10.60;9.20;;;;;;;0.56;100.00;98951.98;107370;1276;77289;-84
2023/11/22 08:16:21;;;;;;;8.50;7.70;;;;;;;0.54;100.00;98956.77;107379;1274;76600;-83
2023/11/22 08:18:49;;;;;;;8.60;7.80;;;;;;;0.51;100.00;98954.02;107294;1276;72956;-82
2023/11/22 08:21:17;;;;;;;8.70;7.40;;;;;;;0.50;100.00;98962.67;107111;1276;59946;-83
2023/11/22 08:23:48;;;;;;;8.00;7.20;;;;;;;0.48;100.00;98965.17;107239;1276;60336;-83
2023/11/22 08:26:15;;;;;;;7.40;6.60;;;;;;;0.46;100.00;98960.98;107048;1276;74182;-83
2023/11/22 08:28:43;;;;;;;6.70;6.00;;;;;;;0.43;100.00;98964.92;107425;1275;73410;-83
2023/11/22 08:31:10;;;;;;;7.40;6.70;;;;;;;0.42;100.00;98965.82;106936;1276;73454;-82
2023/11/22 08:33:38;;;;;;;9.80;8.90;;;;;;;0.43;100.00;98967.75;107113;1275;61396;-82
2023/11/22 08:36:09;;;;;;;8.90;8.00;;;;;;;0.42;100.00;98972.17;107133;1275;59937;-83
2023/11/22 08:38:40;;;;;;;10.50;8.40;;;;;;;0.41;100.00;98967.43;107366;1274;73701;-83
2023/11/22 08:41:08;;;;;;;9.40;8.50;;;;;;;0.41;100.00;98966.37;107183;1276;73309;-84
2023/11/22 08:43:35;;;;;;;9.30;8.40;;;;;;;0.41;100.00;98969.19;107420;1275;73342;-84
2023/11/22 08:46:06;;;;;;;9.70;8.30;;;;;;;0.39;100.00;98972.04;107453;1274;59975;-83
2023/11/22 08:48:41;;;;;;;11.80;8.40;;;;;;;0.37;100.00;98972.27;107414;1274;59475;-83
2023/11/22 08:51:10;;;;;;;8.70;7.80;;;;;;;0.35;100.00;98976.52;107414;1274;75387;-83
2023/11/22 08:53:38;;;;;;;8.10;7.30;;;;;;;0.33;100.00;98976.73;107251;1276;74347;-84
2023/11/22 08:56:05;;;;;;;5.90;5.20;;;;;;;0.33;100.00;98977.44;107146;1274;72596;-82
2023/11/22 08:58:33;;;;;;;8.20;7.40;;;;;;;0.33;100.00;98980.95;107144;1274;61161;-82
2023/11/22 09:01:03;;;;;;;9.60;8.60;;;;;;;0.34;100.00;98982.69;107331;1276;60032;-83
2023/11/22 09:03:32;;;;;;;10.00;7.30;;;;;;;0.35;100.00;98987.45;107032;1277;74880;-84
2023/11/22 09:06:00;;;;;;;7.90;7.10;;;;;;;0.35;100.00;98988.32;107388;1276;75164;-82
2023/11/22 09:08:27;;;;;;;10.40;9.20;;;;;;;0.35;100.00;98994.84;107378;1275;71078;-83
2023/11/22 09:10:57;;;;;;;8.90;8.10;;;;;;;0.35;100.00;98993.96;107339;1277;61908;-83
2023/11/22 09:13:24;;;;;;;8.90;7.30;;;;;;;0.36;100.00;98989.37;107184;1276;59805;-83
2023/11/22 09:15:52;;;;;;;10.90;5.50;;;;;;;0.37;100.00;98985.84;107142;1276;74481;-83
2023/11/22 09:18:19;;;;;;;7.10;6.40;;;;;;;0.36;100.00;98987.95;107340;1276;75206;-83
2023/11/22 09:20:46;;;;;;;30.70;19.40;;;;;;;0.35;100.00;98983.73;107394;1276;71532;-81
2023/11/22 09:23:14;;;;;;;16.40;11.40;;;;;;;0.34;100.00;98983.40;107343;1276;61797;-82
2023/11/22 09:25:43;;;;;;;11.70;10.20;;;;;;;0.33;100.00;98979.02;107339;1275;61237;-81
2023/11/22 09:28:11;;;;;;;10.50;8.90;;;;;;;0.32;100.00;98984.33;107560;1276;74621;-83
2023/11/22 09:30:42;;;;;;;11.60;10.40;;;;;;;0.29;100.00;98986.31;107128;1276;73353;-81
2023/11/22 09:33:12;;;;;;;8.20;7.40;;;;;;;0.26;100.00;98987.95;107543;1274;70470;-81
2023/11/22 09:36:03;;;;;;;8.40;7.60;;;;;;;0.23;100.00;98988.38;107543;1274;61144;-84
2023/11/22 09:38:39;;;;;;;6.30;5.70;;;;;;;0.20;100.00;98995.46;107707;1274;59309;-81
2023/11/22 09:41:08;;;;;;;8.10;5.50;;;;;;;0.18;100.00;98996.75;107565;1274;74601;-82
2023/11/22 09:43:35;;;;;;;5.10;4.50;;;;;;;0.16;100.00;99009.45;107290;1276;75867;-80
2023/11/22 09:46:03;;;;;;;5.90;5.00;;;;;;;0.15;100.00;99012.29;107089;1276;72295;-82
2023/11/22 09:48:31;;;;;;;4.10;3.80;;;;;;;0.12;100.00;99013.39;107286;1275;59936;-81
2023/11/22 09:51:08;;;;;;;4.10;3.70;;;;;;;0.11;100.00;99024.16;107411;1275;60175;-83
2023/11/22 09:54:04;;;;;;;4.70;3.90;;;;;;;0.09;100.00;99027.19;107430;1275;73416;-83
2023/11/22 09:56:36;;;;;;;5.10;4.50;;;;;;;0.08;100.00;99028.43;107238;1279;74695;-82
2023/11/22 09:59:04;;;;;;;4.80;4.30;;;;;;;0.07;100.00;99032.67;107393;1276;73496;-83
2023/11/22 10:01:33;;;;;;;5.20;4.50;;;;;;;0.07;100.00;99030.57;107382;1275;60844;-83
2023/11/22 10:04:00;;;;;;;5.90;4.10;;;;;;;0.07;100.00;99029.52;107491;1276;59391;-86
2023/11/22 10:06:33;;;;;;;5.20;4.70;;;;;;;0.06;100.00;99028.64;107164;1276;73928;-84
2023/11/22 10:09:08;;;;;;;5.90;4.60;;;;;;;0.05;100.00;99023.38;107414;1275;74257;-83
2023/11/22 10:11:38;;;;;;;5.10;4.70;;;;;;;0.05;100.00;99025.66;107175;1277;72309;-83
2023/11/22 10:14:06;;;;;;;6.20;5.60;;;;;;;0.05;100.00;99025.14;107528;1276;61118;-84
2023/11/22 10:16:33;;;;;;;7.00;6.30;;;;;;;0.05;100.00;99029.36;107165;1275;60952;-82
2023/11/22 10:19:00;;;;;;;8.40;7.30;;;;;;;0.06;100.00;99026.18;107404;1276;74730;-82
2023/11/22 10:21:30;;;;;;;8.00;7.20;;;;;;;0.07;100.00;99035.67;107230;1276;74193;-83
2023/11/22 10:24:01;;;;;;;28.20;19.70;;;;;;;0.08;100.00;99032.48;107408;1276;73763;-84
2023/11/22 10:26:29;;;;;;;17.10;13.80;;;;;;;0.08;100.00;99034.44;107271;1276;61494;-81
2023/11/22 10:28:57;;;;;;;20.10;14.00;;;;;;;0.09;100.00;99038.98;107530;1274;60271;-84
2023/11/22 10:31:25;;;;;;;18.50;14.70;;;;;;;0.10;100.00;99039.13;107311;1276;74284;-85
2023/11/22 10:33:57;;;;;;;14.80;12.30;;;;;;;0.11;100.00;99045.63;107072;1276;74402;-83
2023/11/22 10:36:25;;;;;;;19.80;16.50;;;;;;;0.11;100.00;99046.69;107209;1276;72224;-83
2023/11/22 10:38:53;;;;;;;18.20;13.70;;;;;;;0.12;100.00;99046.70;107052;1276;62135;-83
2023/11/22 10:41:24;;;;;;;41.20;25.90;;;;;;;0.12;100.00;99053.20;107115;1276;60096;-83
2023/11/22 10:43:52;;;;;;;46.60;28.70;;;;;;;0.11;100.00;99055.67;107319;1275;75468;-83
2023/11/22 10:46:18;;;;;;;34.90;23.90;;;;;;;0.09;100.00;99065.04;107077;1276;74899;-83
2023/11/22 10:48:46;;;;;;;34.40;27.90;;;;;;;0.05;100.00;99071.61;107267;1276;72883;-82
2023/11/22 10:51:14;;;;;;;57.90;39.60;;;;;;;0.01;100.00;99073.45;107009;1275;61171;-84
2023/11/22 10:53:52;;;;;;;17.10;15.30;;;;;;;-0.05;100.00;99075.83;106973;1276;60336;-83
2023/11/22 10:56:20;;;;;;;30.80;23.30;;;;;;;-0.09;100.00;99072.90;107365;1274;75464;-83
2023/11/22 10:58:49;;;;;;;25.90;21.30;;;;;;;-0.13;100.00;99077.89;107255;1274;74275;-83
2023/11/22 11:01:17;;;;;;;28.20;22.10;;;;;;;-0.17;100.00;99083.23;107319;1274;73206;-84
2023/11/22 11:03:55;;;;;;;18.70;16.40;;;;;;;-0.22;100.00;99083.48;106844;1276;62650;-82
2023/11/22 11:06:27;;;;;;;20.00;14.90;;;;;;;-0.24;100.00;99089.84;107278;1276;59486;-83
2023/11/22 11:08:58;;;;;;;11.00;9.90;;;;;;;-0.26;100.00;99087.77;107239;1275;74649;-83
2023/11/22 11:11:26;;;;;;;26.70;19.20;;;;;;;-0.29;100.00;99086.58;107406;1275;72946;-83
2023/11/22 11:13:53;;;;;;;31.70;22.30;;;;;;;-0.31;100.00;99083.44;107044;1276;73699;-85
2023/11/22 11:16:20;;;;;;;25.80;17.90;;;;;;;-0.33;100.00;99087.88;107339;1275;60977;-84
2023/11/22 11:18:48;;;;;;;18.80;11.50;;;;;;;-0.34;100.00;99086.48;107375;1275;60410;-84
2023/11/22 11:21:15;;;;;;;12.10;10.00;;;;;;;-0.36;100.00;99089.83;107200;1277;75543;-83